Time;durP1;ratioP1;P1;durP2;ratioP2;P2;SDS_P1;SDS_P2;PMS_P1;PMS_P2;Temp;Humidity;BMP_temperature;BMP_pressure;BME280_temperature;BME280_humidity;BME280_pressure;Samples;Min_cycle;Max_cycle;Signal;HPM_P1;HPM_P2
2022/04/26 03:37:52;;;;;;;26.17;21.90;;;6.90;1.00;;;;;;5067826;28;20203;-58
2022/04/26 03:40:20;;;;;;;27.57;23.63;;;6.90;1.00;;;;;;5068191;28;20219;-58
2022/04/26 03:42:47;;;;;;;31.03;23.07;;;6.90;1.00;;;;;;5067597;28;20194;-58
2022/04/26 03:45:14;;;;;;;31.30;23.73;;;6.90;1.00;;;;;;5065920;28;20617;-58
2022/04/26 03:47:41;;;;;;;31.43;23.87;;;7.00;1.00;;;;;;5042706;28;20739;-58
2022/04/26 03:50:08;;;;;;;33.17;27.23;;;7.00;1.00;;;;;;5067378;28;20207;-58
2022/04/26 03:52:35;;;;;;;32.30;26.53;;;7.10;1.00;;;;;;5065642;28;20249;-58
2022/04/26 03:55:03;;;;;;;36.83;28.87;;;7.10;1.00;;;;;;5065501;28;20774;-59
2022/04/26 03:57:30;;;;;;;35.10;28.00;;;7.20;1.00;;;;;;5064524;28;20214;-58
2022/04/26 03:59:57;;;;;;;36.87;30.37;;;7.20;1.00;;;;;;5065662;28;20286;-59
2022/04/26 04:02:24;;;;;;;37.70;30.43;;;7.20;1.00;;;;;;5064113;28;20797;-59
2022/04/26 04:04:54;;;;;;;39.40;30.23;;;7.20;1.00;;;;;;5049776;28;20202;-59
2022/04/26 04:07:22;;;;;;;40.03;31.07;;;7.30;1.00;;;;;;5047398;28;20341;-58
2022/04/26 04:09:49;;;;;;;34.13;28.80;;;7.30;1.00;;;;;;5033107;28;20203;-58
2022/04/26 04:12:16;;;;;;;36.20;29.27;;;7.30;1.00;;;;;;5064570;28;20257;-58
2022/04/26 04:14:43;;;;;;;34.60;28.50;;;7.30;1.00;;;;;;5065211;28;20202;-59
2022/04/26 04:17:10;;;;;;;35.20;29.73;;;7.40;1.00;;;;;;5058704;28;20305;-59
2022/04/26 04:19:37;;;;;;;38.03;29.63;;;7.40;1.00;;;;;;5067783;28;20195;-58
2022/04/26 04:22:05;;;;;;;36.47;29.60;;;7.40;99.90;;;;;;5063911;28;20197;-58
2022/04/26 04:24:32;;;;;;;35.00;28.50;;;7.40;99.90;;;;;;5046525;28;20735;-58
2022/04/26 04:26:59;;;;;;;33.83;28.90;;;7.50;99.90;;;;;;5061591;28;20207;-57
2022/04/26 04:29:26;;;;;;;39.07;30.30;;;7.50;99.90;;;;;;5066796;28;20273;-58
2022/04/26 04:31:53;;;;;;;33.23;27.20;;;7.50;99.90;;;;;;5048457;28;20199;-58
2022/04/26 04:34:23;;;;;;;35.60;28.13;;;7.50;99.90;;;;;;5063657;28;20596;-58
2022/04/26 04:36:50;;;;;;;33.53;26.67;;;7.40;59.20;;;;;;5048581;28;20778;-58
2022/04/26 04:39:23;;;;;;;34.37;27.03;;;7.50;63.70;;;;;;5068147;28;20384;-58
2022/04/26 04:41:51;;;;;;;32.50;27.73;;;7.40;1.00;;;;;;5066020;28;20242;-58
2022/04/26 04:44:18;;;;;;;36.93;27.13;;;7.40;1.00;;;;;;5053419;28;20202;-58
2022/04/26 04:46:45;;;;;;;34.83;27.80;;;7.40;1.00;;;;;;5047089;28;20218;-58
2022/04/26 04:49:14;;;;;;;32.83;26.30;;;7.40;1.00;;;;;;5046700;28;20203;-58
2022/04/26 04:51:42;;;;;;;32.40;25.67;;;7.40;1.00;;;;;;5064730;28;20244;-58
2022/04/26 04:54:09;;;;;;;36.13;25.97;;;7.50;1.00;;;;;;5064491;28;20230;-57
2022/04/26 04:56:36;;;;;;;33.87;24.73;;;7.50;1.00;;;;;;5066377;28;20560;-58
2022/04/26 04:59:03;;;;;;;31.30;26.60;;;7.60;1.00;;;;;;5065263;28;20206;-57
2022/04/26 05:01:30;;;;;;;30.43;23.97;;;7.70;1.00;;;;;;5064807;28;20192;-58
2022/04/26 05:03:57;;;;;;;30.33;23.40;;;7.70;99.90;;;;;;5045562;28;20202;-57
2022/04/26 05:06:24;;;;;;;27.70;23.83;;;7.70;99.90;;;;;;5040001;28;20806;-58
2022/04/26 05:08:52;;;;;;;29.63;23.20;;;7.80;99.90;;;;;;5066213;28;20662;-58
2022/04/26 05:11:19;;;;;;;26.97;21.93;;;7.70;99.90;;;;;;5050110;28;21165;-59
2022/04/26 05:13:52;;;;;;;26.13;21.00;;;7.70;99.90;;;;;;5056302;28;20201;-58
2022/04/26 05:16:20;;;;;;;23.33;20.03;;;7.80;1.00;;;;;;5068661;28;20194;-59
2022/04/26 05:18:47;;;;;;;27.67;20.23;;;7.70;1.00;;;;;;5053247;28;20268;-58
2022/04/26 05:21:14;;;;;;;25.37;20.10;;;7.90;1.00;;;;;;5050163;28;20252;-58
2022/04/26 05:26:27;;;;;;;27.63;19.93;;;8.00;1.00;;;;;;5068279;28;20881;-57
2022/04/26 05:28:54;;;;;;;27.90;18.43;;;8.10;1.00;;;;;;5051366;28;20201;-57
2022/04/26 05:31:21;;;;;;;26.43;18.80;;;8.20;1.00;;;;;;5069123;28;20705;-57
2022/04/26 05:33:48;;;;;;;23.13;19.10;;;8.20;1.00;;;;;;5066398;28;20668;-57
2022/04/26 05:36:15;;;;;;;24.53;18.13;;;8.30;1.00;;;;;;5066070;28;20221;-58
2022/04/26 05:38:44;;;;;;;24.43;17.80;;;8.30;1.00;;;;;;5065716;28;20221;-57
2022/04/26 05:41:13;;;;;;;23.17;17.87;;;8.40;99.90;;;;;;5032104;28;20230;-57
2022/04/26 05:43:40;;;;;;;21.63;16.83;;;8.40;99.90;;;;;;5064628;28;20276;-58
2022/04/26 05:46:13;;;;;;;21.83;17.17;;;8.30;99.90;;;;;;5066103;28;20655;-58
2022/04/26 05:48:40;;;;;;;22.83;17.93;;;8.40;99.90;;;;;;5060778;28;20253;-57
2022/04/26 05:51:10;;;;;;;25.03;17.63;;;8.40;99.90;;;;;;5065039;28;20565;-58
2022/04/26 05:53:40;;;;;;;21.30;18.53;;;8.30;99.90;;;;;;5061970;28;20202;-59
2022/04/26 05:56:10;;;;;;;25.97;18.73;;;8.30;99.90;;;;;;5065070;28;20233;-58
2022/04/26 05:58:40;;;;;;;23.40;18.20;;;8.30;99.90;;;;;;5066052;28;20290;-58
2022/04/26 06:01:07;;;;;;;24.10;18.10;;;8.40;99.90;;;;;;5064152;28;20543;-58
2022/04/26 06:03:34;;;;;;;22.63;18.03;;;8.50;99.90;;;;;;5065436;28;20620;-58
2022/04/26 06:06:02;;;;;;;23.67;17.90;;;8.60;99.90;;;;;;5027464;28;20195;-58
2022/04/26 06:08:29;;;;;;;20.03;16.63;;;8.60;99.90;;;;;;5050076;28;20214;-59
2022/04/26 06:10:55;;;;;;;20.63;17.07;;;8.50;99.90;;;;;;5069367;28;20249;-58
2022/04/26 06:13:22;;;;;;;21.57;17.83;;;8.60;99.90;;;;;;5068341;28;20614;-58
2022/04/26 06:15:50;;;;;;;19.00;16.33;;;8.70;99.90;;;;;;5068502;28;20252;-58
2022/04/26 06:18:17;;;;;;;23.60;16.20;;;8.90;99.90;;;;;;5067503;28;20248;-58
2022/04/26 06:20:44;;;;;;;25.57;17.77;;;8.90;7.00;;;;;;5066502;28;20194;-59
2022/04/26 06:23:10;;;;;;;22.27;17.90;;;8.80;44.40;;;;;;5066494;28;20222;-59
2022/04/26 06:25:39;;;;;;;21.60;18.30;;;9.10;54.90;;;;;;5069758;28;20195;-59
2022/04/26 06:28:07;;;;;;;22.50;17.93;;;9.20;1.00;;;;;;5050142;28;20199;-59
2022/04/26 06:30:37;;;;;;;23.87;17.73;;;9.40;1.00;;;;;;5069333;28;20206;-59
2022/04/26 06:33:05;;;;;;;19.47;16.30;;;9.70;1.00;;;;;;5066733;28;20191;-58
2022/04/26 06:35:32;;;;;;;19.83;16.97;;;10.00;1.00;;;;;;5047733;28;20772;-59
2022/04/26 06:38:02;;;;;;;21.50;16.73;;;10.30;1.00;;;;;;5068906;28;20231;-58
2022/04/26 06:40:30;;;;;;;20.90;16.03;;;10.70;99.90;;;;;;5069164;28;20250;-58
2022/04/26 06:42:59;;;;;;;19.50;15.13;;;11.00;99.90;;;;;;5067064;28;20179;-58
2022/04/26 06:45:26;;;;;;;18.70;15.37;;;11.30;99.90;;;;;;5051664;28;20189;-58
2022/04/26 06:47:54;;;;;;;25.70;15.93;;;11.40;99.90;;;;;;5067964;28;20217;-58
2022/04/26 06:50:24;;;;;;;19.03;15.73;;;11.30;99.90;;;;;;5068244;28;20700;-59
2022/04/26 06:52:52;;;;;;;17.23;15.23;;;11.30;99.90;;;;;;5064514;28;20600;-58
2022/04/26 06:55:19;;;;;;;18.10;15.47;;;11.20;99.90;;;;;;5067448;28;20660;-59
2022/04/26 06:57:48;;;;;;;20.03;16.23;;;11.10;99.90;;;;;;5067388;28;20729;-58
2022/04/26 07:00:15;;;;;;;19.60;16.90;;;11.20;99.90;;;;;;5063813;28;20237;-58
2022/04/26 07:02:42;;;;;;;19.37;15.77;;;11.30;99.90;;;;;;5067414;28;20217;-59
2022/04/26 07:05:11;;;;;;;22.93;15.90;;;11.50;99.90;;;;;;5067289;28;20202;-58
2022/04/26 07:07:39;;;;;;;16.33;14.63;;;12.20;1.00;;;;;;5028573;28;21101;-58
2022/04/26 07:10:07;;;;;;;20.07;15.00;;;12.90;1.00;;;;;;5067238;28;20430;-59
2022/04/26 07:12:34;;;;;;;16.53;13.33;;;13.40;1.00;;;;;;5066733;28;20610;-59
2022/04/26 07:15:02;;;;;;;16.53;14.07;;;13.90;1.00;;;;;;5068116;28;20229;-59
2022/04/26 07:17:29;;;;;;;17.47;14.07;;;14.10;99.90;;;;;;5062790;28;20284;-58
2022/04/26 07:19:58;;;;;;;17.53;14.93;;;13.70;99.90;;;;;;5049419;28;20222;-58
2022/04/26 07:22:29;;;;;;;19.47;15.17;;;13.60;1.00;;;;;;5065124;28;20643;-58
2022/04/26 07:24:56;;;;;;;19.40;16.30;;;13.40;1.00;;;;;;5066717;28;20611;-58
2022/04/26 07:27:25;;;;;;;21.97;16.07;;;13.20;1.00;;;;;;5064772;28;20278;-58
2022/04/26 07:29:52;;;;;;;18.10;15.60;;;13.00;1.00;;;;;;5066371;28;20207;-58
2022/04/26 07:32:19;;;;;;;20.97;17.73;;;12.80;1.00;;;;;;5063420;28;20199;-58
2022/04/26 07:34:46;;;;;;;23.93;18.33;;;12.40;1.00;;;;;;5065706;28;20199;-57
2022/04/26 07:37:13;;;;;;;23.03;19.00;;;12.60;1.00;;;;;;5060270;28;20195;-58
2022/04/26 07:39:41;;;;;;;23.37;18.30;;;12.80;1.00;;;;;;5064066;28;20272;-58
2022/04/26 07:42:08;;;;;;;21.83;18.33;;;13.40;1.00;;;;;;5061119;28;20199;-58
2022/04/26 07:44:35;;;;;;;22.20;18.87;;;13.80;1.00;;;;;;5058093;28;20666;-58
2022/04/26 07:47:05;;;;;;;20.93;18.43;;;13.80;1.00;;;;;;5049282;28;20846;-58
2022/04/26 07:49:35;;;;;;;25.23;18.73;;;14.20;1.00;;;;;;5062812;28;20215;-57
2022/04/26 07:52:03;;;;;;;24.30;18.27;;;14.70;99.90;;;;;;5057443;28;20710;-55
2022/04/26 07:54:30;;;;;;;20.57;17.67;;;15.40;99.90;;;;;;5065739;28;20537;-57
2022/04/26 07:56:56;;;;;;;24.30;19.38;;;16.20;51.50;;;;;;5067058;28;20252;-59
2022/04/26 07:59:25;;;;;;;21.58;19.05;;;17.10;1.00;;;;;;5056291;28;21728;-59
2022/04/26 08:01:52;;;;;;;21.23;19.08;;;18.00;1.00;;;;;;5069229;28;20195;-58
2022/04/26 08:04:23;;;;;;;22.30;19.20;;;18.20;1.00;;;;;;5071217;28;20202;-58
2022/04/26 08:06:49;;;;;;;21.70;19.17;;;17.60;1.00;;;;;;5050322;28;20199;-58
2022/04/26 08:09:16;;;;;;;23.30;19.83;;;17.20;1.00;;;;;;5049678;28;20758;-58
2022/04/26 08:11:43;;;;;;;22.33;19.92;;;16.40;1.00;;;;;;5069099;28;20757;-57
2022/04/26 08:14:10;;;;;;;23.38;20.40;;;15.90;1.00;;;;;;5050660;28;20199;-58
2022/04/26 08:16:37;;;;;;;25.65;20.60;;;15.10;96.10;;;;;;5069120;28;20195;-57
2022/04/26 08:19:05;;;;;;;23.73;20.25;;;14.80;99.90;;;;;;5062147;28;20219;-58
2022/04/26 08:21:38;;;;;;;26.42;20.23;;;14.70;99.90;;;;;;5066506;28;20198;-58
2022/04/26 08:29:36;;;;;;;21.27;18.52;;;15.20;99.90;;;;;;5066671;28;20191;-57
2022/04/26 08:32:05;;;;;;;20.33;17.70;;;15.20;99.90;;;;;;5045646;28;20209;-58
2022/04/26 08:34:33;;;;;;;20.27;17.35;;;14.80;99.90;;;;;;5069431;28;20751;-58
2022/04/26 08:37:00;;;;;;;22.77;18.73;;;14.70;99.90;;;;;;5068694;28;20222;-58
2022/04/26 08:39:27;;;;;;;22.88;18.17;;;14.50;99.90;;;;;;5069615;28;20306;-58
2022/04/26 08:41:58;;;;;;;20.10;17.83;;;14.60;99.90;;;;;;5065561;28;20230;-58
2022/04/26 08:44:29;;;;;;;23.60;18.17;;;14.70;99.90;;;;;;5067509;28;20190;-57
2022/04/26 08:52:43;;;;;;;21.90;17.48;;;15.70;15.10;;;;;;5062321;28;20269;-58
2022/04/26 08:55:10;;;;;;;20.33;16.80;;;15.80;8.70;;;;;;5064674;28;20311;-58
2022/04/26 08:57:37;;;;;;;20.10;17.92;;;15.70;22.70;;;;;;5065032;28;20606;-59
2022/04/26 09:00:05;;;;;;;23.98;16.77;;;15.70;4.40;;;;;;5067428;28;20194;-58
2022/04/26 09:02:39;;;;;;;22.75;18.00;;;15.90;15.30;;;;;;5061962;28;20191;-59
2022/04/26 09:05:14;;;;;;;22.98;18.73;;;15.70;1.00;;;;;;5063332;28;20245;-57
2022/04/26 09:07:47;;;;;;;23.63;19.95;;;14.90;94.10;;;;;;5066517;28;20850;-57
2022/04/26 09:10:17;;;;;;;21.20;18.45;;;15.10;93.20;;;;;;5066250;28;20190;-57
2022/04/26 09:13:09;;;;;;;21.00;18.02;;;15.50;86.50;;;;;;5065594;28;20205;-57
2022/04/26 09:15:43;;;;;;;20.75;18.38;;;15.70;1.00;;;;;;5061397;28;20277;-57
2022/04/26 09:18:27;;;;;;;22.20;18.33;;;16.40;1.00;;;;;;5058981;28;20758;-57
2022/04/26 09:20:55;;;;;;;23.55;19.65;;;16.50;1.00;;;;;;5067191;28;20267;-57
2022/04/26 09:23:26;;;;;;;21.48;19.17;;;15.70;1.00;;;;;;5069083;28;20214;-57
2022/04/26 09:26:12;;;;;;;22.27;18.15;;;15.60;1.00;;;;;;5063700;28;20191;-57
2022/04/26 09:28:43;;;;;;;20.58;17.95;;;16.20;1.00;;;;;;5062048;28;20214;-57
2022/04/26 09:31:20;;;;;;;22.30;18.50;;;16.60;1.00;;;;;;5067369;28;21748;-57
2022/04/26 09:33:57;;;;;;;20.63;18.52;;;16.80;1.00;;;;;;5040987;28;20196;-57
2022/04/26 09:36:35;;;;;;;19.88;17.80;;;16.20;1.00;;;;;;5065181;28;20719;-57
2022/04/26 09:39:07;;;;;;;21.65;17.67;;;16.40;1.00;;;;;;5066170;28;20218;-57
2022/04/26 09:41:35;;;;;;;21.60;18.38;;;17.30;1.00;;;;;;5064757;28;20222;-57
2022/04/26 09:44:07;;;;;;;23.70;18.70;;;17.60;1.00;;;;;;5069541;28;20190;-57
2022/04/26 09:46:40;;;;;;;20.52;18.33;;;18.10;1.00;;;;;;5068815;28;20202;-57
2022/04/26 09:49:09;;;;;;;21.15;18.88;;;18.30;1.00;;;;;;5060111;28;20302;-57
2022/04/26 09:51:37;;;;;;;21.48;18.88;;;18.10;1.00;;;;;;5069063;28;20195;-59
2022/04/26 09:54:05;;;;;;;20.80;18.55;;;18.60;1.00;;;;;;5068288;28;20850;-58
2022/04/26 09:56:32;;;;;;;20.33;18.15;;;18.70;1.00;;;;;;5054882;28;20276;-58
2022/04/26 09:59:01;;;;;;;21.02;18.27;;;20.00;1.00;;;;;;5069774;28;20939;-57
2022/04/26 10:01:42;;;;;;;19.60;17.52;;;22.10;1.00;;;;;;5074710;28;20214;-58
2022/04/26 10:04:15;;;;;;;18.98;17.08;;;23.80;1.00;;;;;;5068619;28;20202;-58
2022/04/26 10:06:43;;;;;;;21.00;18.35;;;23.80;1.00;;;;;;5057950;28;20195;-58
2022/04/26 10:09:11;;;;;;;18.83;16.92;;;24.20;99.90;;;;;;5070423;28;20230;-58
2022/04/26 10:11:37;;;;;;;20.52;17.75;;;22.80;99.90;;;;;;5071718;28;20226;-58
2022/04/26 10:14:07;;;;;;;18.60;16.80;;;21.90;99.90;;;;;;5070013;28;20199;-59
2022/04/26 10:16:37;;;;;;;20.15;18.00;;;22.70;99.90;;;;;;5069360;28;20195;-59
2022/04/26 10:19:09;;;;;;;17.88;16.08;;;23.00;99.90;;;;;;5073718;28;20207;-59
2022/04/26 10:21:38;;;;;;;19.55;17.52;;;24.10;99.90;;;;;;5070480;28;21164;-58
2022/04/26 10:24:06;;;;;;;20.15;18.10;;;25.20;99.90;;;;;;5066574;28;20871;-58
2022/04/26 10:26:34;;;;;;;18.17;16.17;;;25.00;99.90;;;;;;5075923;28;20257;-58
2022/04/26 10:29:07;;;;;;;18.92;16.65;;;26.40;99.90;;;;;;5071004;28;20237;-58
2022/04/26 10:31:42;;;;;;;18.77;15.95;;;26.10;99.90;;;;;;5067569;28;20261;-58
2022/04/26 10:34:18;;;;;;;17.45;15.82;;;25.80;99.90;;;;;;5066796;28;20735;-58
2022/04/26 10:36:45;;;;;;;18.02;16.23;;;24.80;99.90;;;;;;5071034;28;20190;-58
2022/04/26 10:39:12;;;;;;;17.90;16.30;;;25.80;99.90;;;;;;5069609;28;20230;-59
2022/04/26 10:41:44;;;;;;;16.75;15.20;;;25.90;99.90;;;;;;5069813;28;20236;-59
2022/04/26 10:44:17;;;;;;;16.13;14.40;;;27.50;99.90;;;;;;5069248;28;20699;-59
2022/04/26 10:47:09;;;;;;;15.13;13.65;;;27.20;99.90;;;;;;5068966;28;20200;-59
2022/04/26 10:49:35;;;;;;;15.20;13.70;;;27.20;99.90;;;;;;5068099;28;20191;-57
2022/04/26 10:52:19;;;;;;;16.95;14.63;;;26.00;99.90;;;;;;5071676;28;20205;-57
2022/04/26 10:54:51;;;;;;;17.20;15.32;;;24.50;99.90;;;;;;5068872;28;20260;-58
2022/04/26 10:57:20;;;;;;;17.58;15.68;;;23.00;99.90;;;;;;5072121;28;20199;-58
2022/04/26 10:59:48;;;;;;;28.85;18.30;;;22.00;99.90;;;;;;5074043;28;20887;-59
2022/04/26 11:02:17;;;;;;;30.50;19.63;;;21.00;1.00;;;;;;5062539;28;20266;-58
2022/04/26 11:04:45;;;;;;;25.85;18.67;;;19.80;1.00;;;;;;5065072;28;20186;-59
2022/04/26 11:07:17;;;;;;;20.60;18.40;;;19.00;1.00;;;;;;5063849;28;20195;-58
2022/04/26 11:09:49;;;;;;;21.02;18.65;;;18.70;99.90;;;;;;5070277;28;20203;-58
2022/04/26 11:12:21;;;;;;;20.25;18.25;;;18.20;62.20;;;;;;5051709;28;20701;-58
2022/04/26 11:14:50;;;;;;;21.40;18.83;;;17.90;99.90;;;;;;5065882;28;20636;-58
2022/04/26 11:17:18;;;;;;;22.27;19.00;;;17.70;99.90;;;;;;5047401;28;20199;-59
2022/04/26 11:19:53;;;;;;;20.38;18.30;;;17.70;99.90;;;;;;5059462;28;20294;-59
2022/04/26 11:22:22;;;;;;;22.42;18.65;;;17.60;99.90;;;;;;5065605;28;20228;-58
2022/04/26 11:28:09;;;;;;;20.25;18.15;;;17.90;99.90;;;;;;5068102;28;20312;-58
2022/04/26 11:30:45;;;;;;;21.58;17.95;;;18.00;99.90;;;;;;5071235;28;20651;-58
2022/04/26 11:33:20;;;;;;;19.40;17.10;;;18.00;99.90;;;;;;5030073;28;20198;-58
2022/04/26 11:35:52;;;;;;;20.05;17.83;;;18.10;99.90;;;;;;5040498;28;20228;-57
2022/04/26 11:38:22;;;;;;;21.35;16.80;;;18.00;99.90;;;;;;5056228;28;20234;-58
2022/04/26 11:41:00;;;;;;;18.63;15.50;;;17.70;99.90;;;;;;5076095;28;20218;-57
2022/04/26 11:43:34;;;;;;;16.63;14.75;;;17.60;37.70;;;;;;5045645;28;20256;-58
2022/04/26 11:46:02;;;;;;;16.77;14.98;;;17.70;1.00;;;;;;5061380;28;20598;-58
2022/04/26 11:48:34;;;;;;;18.08;14.70;;;17.90;1.00;;;;;;5074490;28;20202;-58
2022/04/26 11:51:02;;;;;;;21.67;14.32;;;17.60;3.60;;;;;;5068513;28;20190;-58
2022/04/26 11:53:37;;;;;;;16.88;14.88;;;17.60;1.00;;;;;;5050576;28;20214;-58
2022/04/26 11:56:06;;;;;;;17.02;13.88;;;17.70;1.00;;;;;;5074255;28;20213;-58
2022/04/26 11:58:35;;;;;;;16.60;14.52;;;17.70;1.00;;;;;;5074474;28;20655;-57
2022/04/26 12:01:03;;;;;;;17.42;13.80;;;17.80;1.00;;;;;;5067500;28;20292;-57
2022/04/26 12:03:43;;;;;;;16.92;14.18;;;17.70;1.00;;;;;;5063201;28;20202;-57
2022/04/26 12:06:12;;;;;;;15.85;13.75;;;18.20;1.00;;;;;;5069186;28;20194;-57
2022/04/26 12:08:42;;;;;;;15.52;13.43;;;18.60;1.00;;;;;;5071351;28;20302;-57
2022/04/26 12:11:16;;;;;;;15.73;12.68;;;19.10;1.00;;;;;;5065214;28;20693;-58
2022/04/26 12:13:43;;;;;;;15.68;12.57;;;19.50;1.00;;;;;;5067425;28;20191;-58
2022/04/26 12:16:15;;;;;;;14.05;12.27;;;19.30;1.00;;;;;;5069539;28;20206;-58
2022/04/26 12:18:56;;;;;;;13.10;11.80;;;19.40;1.00;;;;;;5050586;28;20362;-58
2022/04/26 12:21:28;;;;;;;13.10;11.80;;;19.30;1.00;;;;;;5070175;28;20232;-58
2022/04/26 12:24:16;;;;;;;13.57;11.93;;;19.20;1.00;;;;;;5069529;28;21521;-58
2022/04/26 12:26:56;;;;;;;12.85;11.55;;;18.50;1.00;;;;;;5052521;28;20201;-58
2022/04/26 12:29:28;;;;;;;13.88;11.95;;;18.40;1.00;;;;;;5070538;28;20198;-58
2022/04/26 12:31:57;;;;;;;18.90;12.55;;;18.80;1.00;;;;;;5069802;28;20262;-57
2022/04/26 12:34:29;;;;;;;17.63;12.20;;;18.60;1.00;;;;;;5065282;28;20195;-57
2022/04/26 12:37:03;;;;;;;12.98;11.68;;;18.90;1.00;;;;;;5031396;28;20202;-58
2022/04/26 12:39:45;;;;;;;13.15;10.88;;;18.70;1.00;;;;;;5067458;28;20210;-57
2022/04/26 12:42:15;;;;;;;12.90;10.27;;;18.90;1.00;;;;;;5066509;28;20531;-57
2022/04/26 12:44:56;;;;;;;22.48;10.88;;;19.30;1.00;;;;;;5049865;28;20202;-58
2022/04/26 12:50:35;;;;;;;11.63;9.90;;;20.10;1.00;;;;;;5066519;28;20264;-58
2022/04/26 12:53:02;;;;;;;12.30;10.30;;;19.70;1.00;;;;;;5068191;28;20195;-58
2022/04/26 12:55:30;;;;;;;15.35;10.95;;;19.10;1.00;;;;;;5062130;28;20209;-58
2022/04/26 12:58:00;;;;;;;17.38;11.43;;;18.60;1.00;;;;;;5048960;28;20207;-59
2022/04/26 13:00:28;;;;;;;11.18;9.85;;;18.00;1.00;;;;;;5039779;28;20629;-58
2022/04/26 13:02:58;;;;;;;16.50;10.50;;;17.70;1.00;;;;;;5066350;28;20195;-59
2022/04/26 13:05:41;;;;;;;15.85;10.13;;;17.60;1.00;;;;;;5070269;28;20964;-56
2022/04/26 13:08:09;;;;;;;10.40;9.38;;;17.20;1.00;;;;;;5070718;28;20214;-57
2022/04/26 13:10:37;;;;;;;12.95;11.32;;;17.00;1.00;;;;;;5073282;28;20210;-59
2022/04/26 13:13:05;;;;;;;17.23;12.13;;;16.70;1.00;;;;;;5070821;28;20202;-60
2022/04/26 13:15:33;;;;;;;14.07;11.10;;;16.40;1.00;;;;;;5069495;28;20199;-58
2022/04/26 13:18:00;;;;;;;14.70;13.10;;;16.20;1.00;;;;;;5066274;28;20213;-58
2022/04/26 13:20:28;;;;;;;15.27;13.67;;;15.30;1.00;;;;;;5066429;28;20259;-58
2022/04/26 13:22:55;;;;;;;16.43;13.73;;;14.80;99.90;;;;;;5067524;28;20203;-58
2022/04/26 13:25:22;;;;;;;17.47;14.97;;;14.20;1.00;;;;;;5063576;28;20286;-58
2022/04/26 13:27:49;;;;;;;17.90;16.00;;;12.90;1.00;;;;;;5070724;28;20198;-58
2022/04/26 13:30:17;;;;;;;39.53;19.07;;;12.40;99.90;;;;;;5054629;28;20251;-58
2022/04/26 13:32:44;;;;;;;45.97;20.77;;;11.80;1.00;;;;;;5069711;28;20221;-58
2022/04/26 13:35:12;;;;;;;0.33;0.33;;;10.50;99.90;;;;;;5047912;28;20195;-54
2022/04/26 13:37:39;;;;;;;0.40;0.40;;;9.80;99.90;;;;;;5068123;28;20194;-54
2022/04/26 13:40:07;;;;;;;0.30;0.30;;;9.70;99.90;;;;;;5070674;28;20222;-55
2022/04/26 13:42:35;;;;;;;0.40;0.40;;;9.70;99.90;;;;;;5047973;28;20248;-53
2022/04/26 13:45:03;;;;;;;0.40;0.40;;;9.60;99.90;;;;;;5047216;28;20277;-53
2022/04/26 13:47:30;;;;;;;0.40;0.40;;;9.20;99.90;;;;;;5060933;28;20304;-53
2022/04/26 13:49:58;;;;;;;0.40;0.40;;;9.00;99.90;;;;;;5066598;28;20676;-53
2022/04/26 13:52:25;;;;;;;0.40;0.40;;;9.40;99.90;;;;;;5067122;28;20210;-53
2022/04/26 13:54:52;;;;;;;0.40;0.40;;;9.00;99.90;;;;;;5052277;28;20270;-52
2022/04/26 13:57:19;;;;;;;0.40;0.40;;;9.50;99.90;;;;;;5051614;28;20265;-53
2022/04/26 13:59:46;;;;;;;0.40;0.40;;;9.30;99.90;;;;;;5064684;28;20229;-53
2022/04/26 14:02:13;;;;;;;0.40;0.40;;;9.60;99.90;;;;;;5066553;28;20637;-53
2022/04/26 14:04:42;;;;;;;0.30;0.30;;;9.90;99.90;;;;;;5060838;28;20219;-53
2022/04/26 14:07:09;;;;;;;0.40;0.40;;;10.20;99.90;;;;;;5049233;28;20319;-52
2022/04/26 14:09:36;;;;;;;0.40;0.40;;;10.30;99.90;;;;;;5066188;28;20253;-54
2022/04/26 14:12:05;;;;;;;0.40;0.40;;;10.30;99.90;;;;;;5048483;28;20245;-53
2022/04/26 14:22:52;;;;;;;0.40;0.40;;;11.90;99.90;;;;;;5067530;28;20291;-53
2022/04/26 14:25:19;;;;;;;0.30;0.30;;;11.90;99.90;;;;;;5052801;28;20218;-53
2022/04/26 14:27:47;;;;;;;0.30;0.30;;;12.40;99.90;;;;;;5068592;28;20315;-53
2022/04/26 14:30:15;;;;;;;0.23;0.23;;;12.50;99.90;;;;;;5053006;28;20202;-53
2022/04/26 14:33:02;;;;;;;0.20;0.20;;;12.70;99.90;;;;;;5068423;28;20233;-53
2022/04/26 14:35:31;;;;;;;0.30;0.30;;;12.60;99.90;;;;;;5071019;28;20721;-53
2022/04/26 14:37:59;;;;;;;0.20;0.20;;;12.40;99.90;;;;;;5054796;28;20234;-53
2022/04/26 14:40:27;;;;;;;0.20;0.20;;;12.70;99.90;;;;;;5069232;28;20257;-53
2022/04/26 14:42:54;;;;;;;0.27;0.27;;;12.60;99.90;;;;;;5073146;28;20571;-53
2022/04/26 14:45:22;;;;;;;0.20;0.20;;;12.90;99.90;;;;;;5069396;28;20182;-53
2022/04/26 14:47:49;;;;;;;0.20;0.20;;;13.10;99.90;;;;;;5070892;28;20190;-53
2022/04/26 14:50:18;;;;;;;1.33;1.23;;;13.40;99.90;;;;;;5071307;28;20208;-53
2022/04/26 14:52:45;;;;;;;0.20;0.20;;;13.60;99.90;;;;;;5070869;28;20222;-53
2022/04/26 14:55:12;;;;;;;0.40;0.40;;;13.60;99.90;;;;;;5063401;28;20587;-53
2022/04/26 14:57:40;;;;;;;0.23;0.23;;;13.50;99.90;;;;;;5071590;28;20678;-53
2022/04/26 15:00:08;;;;;;;0.20;0.20;;;13.60;99.90;;;;;;5071291;28;20225;-53
2022/04/26 15:02:38;;;;;;;3.80;3.60;;;13.60;99.90;;;;;;5070390;28;20195;-53
2022/04/26 15:05:08;;;;;;;0.20;0.20;;;13.40;99.90;;;;;;5067984;28;20654;-53
2022/04/26 15:10:23;;;;;;;8.40;5.50;;;13.30;99.90;;;;;;5046589;28;20207;-53
2022/04/26 15:18:21;;;;;;;0.30;0.30;;;13.00;99.90;;;;;;5070388;28;20190;-54
2022/04/26 15:20:50;;;;;;;0.30;0.30;;;12.90;99.90;;;;;;5070508;28;20217;-54
2022/04/26 15:23:20;;;;;;;0.40;0.40;;;13.00;99.90;;;;;;5072170;28;20210;-54
2022/04/26 15:25:55;;;;;;;0.30;0.30;;;13.10;99.90;;;;;;5072650;28;20228;-54
2022/04/26 15:28:23;;;;;;;0.30;0.30;;;13.00;99.90;;;;;;5062064;28;20205;-53
2022/04/26 15:30:51;;;;;;;0.30;0.30;;;13.00;99.90;;;;;;5061517;28;20218;-53
2022/04/26 15:33:19;;;;;;;0.30;0.30;;;12.80;99.90;;;;;;5060624;28;20286;-53
2022/04/26 15:35:46;;;;;;;0.30;0.30;;;13.00;99.90;;;;;;5056143;28;20213;-53
2022/04/26 15:38:14;;;;;;;0.30;0.30;;;13.00;99.90;;;;;;5064644;28;20287;-53
2022/04/26 15:44:23;;;;;;;0.30;0.30;;;13.00;99.90;;;;;;5059025;28;20202;-53
2022/04/26 15:46:54;;;;;;;0.30;0.30;;;12.90;99.90;;;;;;5055226;28;20300;-54
2022/04/26 15:49:22;;;;;;;0.37;0.37;;;12.90;99.90;;;;;;5067491;28;20248;-53
2022/04/26 15:51:49;;;;;;;0.30;0.30;;;12.90;99.90;;;;;;5067349;28;20198;-53
2022/04/26 15:54:16;;;;;;;0.30;0.30;;;13.20;99.90;;;;;;5068011;28;20207;-53
2022/04/26 15:56:44;;;;;;;0.30;0.30;;;13.00;99.90;;;;;;5050454;28;20203;-53
2022/04/26 15:59:12;;;;;;;0.30;0.30;;;12.80;99.90;;;;;;5066572;28;20207;-54
2022/04/26 16:01:40;;;;;;;0.30;0.30;;;12.70;99.90;;;;;;5065283;28;20195;-54
2022/04/26 16:04:11;;;;;;;0.30;0.30;;;12.50;99.90;;;;;;5067754;28;20302;-54
2022/04/26 16:06:41;;;;;;;0.30;0.30;;;12.60;99.90;;;;;;5068917;28;20218;-54
2022/04/26 16:20:29;;;;;;;0.30;0.30;;;11.90;99.90;;;;;;5073995;28;20293;-53
2022/04/26 16:22:58;;;;;;;0.40;0.40;;;11.90;99.90;;;;;;5061221;28;20272;-54
2022/04/26 16:25:25;;;;;;;0.30;0.30;;;11.90;99.90;;;;;;5071630;28;20198;-53
2022/04/26 16:27:52;;;;;;;0.77;0.77;;;11.60;99.90;;;;;;5061100;28;20261;-53
2022/04/26 16:30:25;;;;;;;0.30;0.30;;;11.70;99.90;;;;;;5067852;28;20198;-53
2022/04/26 16:32:52;;;;;;;0.30;0.30;;;11.90;99.90;;;;;;5048285;28;20205;-53
2022/04/26 16:35:19;;;;;;;0.30;0.30;;;12.10;99.90;;;;;;5068110;28;20373;-53
2022/04/26 16:37:46;;;;;;;0.50;0.50;;;12.00;99.90;;;;;;5067997;28;20709;-53
2022/04/26 16:40:13;;;;;;;0.40;0.40;;;12.10;99.90;;;;;;5067756;28;20253;-53
2022/04/26 16:42:40;;;;;;;0.30;0.30;;;12.00;99.90;;;;;;5068576;28;20195;-54
2022/04/26 16:45:08;;;;;;;0.37;0.37;;;12.00;99.90;;;;;;5054556;28;20560;-53
2022/04/26 16:47:36;;;;;;;0.30;0.30;;;12.10;99.90;;;;;;5067820;28;20198;-54
2022/04/26 16:50:04;;;;;;;0.30;0.30;;;12.00;99.90;;;;;;5068889;28;20202;-54
2022/04/26 16:52:31;;;;;;;0.30;0.30;;;12.00;99.90;;;;;;5066265;28;20217;-54
2022/04/26 16:54:58;;;;;;;0.30;0.30;;;12.00;99.90;;;;;;5069102;28;20248;-54
2022/04/26 16:57:28;;;;;;;0.30;0.30;;;12.10;99.90;;;;;;5068992;28;20191;-54
2022/04/26 16:59:57;;;;;;;0.30;0.30;;;12.10;99.90;;;;;;5070043;28;20207;-54
2022/04/26 17:02:24;;;;;;;0.30;0.30;;;12.00;99.90;;;;;;5066972;28;20655;-54
2022/04/26 17:04:52;;;;;;;0.30;0.30;;;12.00;99.90;;;;;;5036543;28;20195;-53
2022/04/26 17:07:19;;;;;;;0.30;0.30;;;12.10;99.90;;;;;;5067524;28;20249;-54
2022/04/26 17:09:46;;;;;;;0.40;0.40;;;12.10;99.90;;;;;;5070663;28;20221;-54
2022/04/26 17:12:14;;;;;;;0.40;0.40;;;12.00;99.90;;;;;;5068988;28;20195;-55
2022/04/26 17:14:42;;;;;;;0.30;0.30;;;12.10;99.90;;;;;;5067793;28;20193;-55
2022/04/26 17:17:11;;;;;;;0.30;0.30;;;12.30;99.90;;;;;;5067834;28;20687;-56